Time;durP1;ratioP1;P1;durP2;ratioP2;P2;SDS_P1;SDS_P2;PMS_P1;PMS_P2;Temp;Humidity;BMP_temperature;BMP_pressure;BME280_temperature;BME280_humidity;BME280_pressure;Samples;Min_cycle;Max_cycle;Signal;HPM_P1;HPM_P2
2023/04/27 00:00:10;;;;;;;10.00;3.60;;;;;;;;;;4452665;32;20369;-78
2023/04/27 00:02:39;;;;;;;8.63;3.60;;;;;;;;;;4452490;32;20651;-78
2023/04/27 00:05:07;;;;;;;7.47;4.17;;;;;;;;;;4452501;32;20552;-78
2023/04/27 00:07:34;;;;;;;17.93;5.27;;;;;;;;;;4452343;32;20569;-78
2023/04/27 00:10:02;;;;;;;5.73;3.47;;;;;;;;;;4452509;32;20606;-78
2023/04/27 00:12:29;;;;;;;11.07;4.20;;;;;;;;;;4452487;32;20342;-78
2023/04/27 00:14:57;;;;;;;10.13;3.17;;;;;;;;;;4452491;32;20302;-78
2023/04/27 00:17:26;;;;;;;13.63;3.87;;;;;;;;;;4451813;32;20401;-78
2023/04/27 00:19:54;;;;;;;11.07;3.50;;;;;;;;;;4452341;32;20632;-78
2023/04/27 00:22:22;;;;;;;7.23;3.47;;;;;;;;;;4452200;32;20563;-78
2023/04/27 00:24:49;;;;;;;5.27;3.10;;;;;;;;;;4452376;32;20374;-79
2023/04/27 00:27:16;;;;;;;9.23;3.27;;;;;;;;;;4452386;32;20553;-76
2023/04/27 00:29:44;;;;;;;10.33;3.37;;;;;;;;;;4452376;32;20642;-77
2023/04/27 00:32:12;;;;;;;8.47;3.30;;;;;;;;;;4452365;32;20596;-78
2023/04/27 00:34:39;;;;;;;7.43;3.17;;;;;;;;;;4452254;32;20572;-77
2023/04/27 00:37:08;;;;;;;8.53;3.33;;;;;;;;;;4452333;32;20584;-78
2023/04/27 00:39:36;;;;;;;11.60;4.20;;;;;;;;;;4452276;32;20613;-78
2023/04/27 00:42:03;;;;;;;18.23;3.20;;;;;;;;;;4452244;32;20537;-77
2023/04/27 00:44:30;;;;;;;11.07;3.23;;;;;;;;;;4452306;32;20567;-78
2023/04/27 00:46:59;;;;;;;11.07;3.80;;;;;;;;;;4452297;32;20673;-78
2023/04/27 00:49:27;;;;;;;9.57;4.07;;;;;;;;;;4452188;32;20631;-80
2023/04/27 00:51:55;;;;;;;11.73;4.60;;;;;;;;;;4452228;32;20605;-80
2023/04/27 00:54:25;;;;;;;12.67;4.53;;;;;;;;;;4452161;32;20645;-80
2023/04/27 00:56:54;;;;;;;11.07;4.70;;;;;;;;;;4452238;32;20536;-80
2023/04/27 00:59:21;;;;;;;12.80;5.00;;;;;;;;;;4452078;32;20569;-80
2023/04/27 01:01:53;;;;;;;11.83;4.20;;;;;;;;;;4452045;32;20633;-80
2023/04/27 01:04:22;;;;;;;11.20;3.60;;;;;;;;;;4452074;32;20576;-79
2023/04/27 01:06:49;;;;;;;5.77;3.10;;;;;;;;;;4452424;32;20597;-79
2023/04/27 01:09:18;;;;;;;11.17;3.60;;;;;;;;;;4451919;32;20558;-79
2023/04/27 01:11:47;;;;;;;7.97;3.20;;;;;;;;;;4454765;32;20544;-80
2023/04/27 01:14:16;;;;;;;10.07;3.23;;;;;;;;;;4454872;32;20587;-80
2023/04/27 01:16:45;;;;;;;9.97;4.10;;;;;;;;;;4454997;32;20532;-80
2023/04/27 01:19:12;;;;;;;5.40;2.87;;;;;;;;;;4454891;32;20601;-80
2023/04/27 01:21:40;;;;;;;4.07;3.00;;;;;;;;;;4454690;32;20556;-79
2023/04/27 01:24:10;;;;;;;6.23;3.47;;;;;;;;;;4454877;32;20377;-79
2023/04/27 01:26:37;;;;;;;15.57;3.57;;;;;;;;;;4454883;32;20561;-79
2023/04/27 01:29:05;;;;;;;11.87;3.77;;;;;;;;;;4454856;32;20635;-80
2023/04/27 01:31:32;;;;;;;11.33;3.63;;;;;;;;;;4454763;32;20595;-79
2023/04/27 01:34:00;;;;;;;6.00;2.73;;;;;;;;;;4454746;32;20638;-80
2023/04/27 01:36:27;;;;;;;6.57;3.00;;;;;;;;;;4454009;32;20603;-79
2023/04/27 01:38:55;;;;;;;6.87;3.23;;;;;;;;;;4454589;32;20330;-81
2023/04/27 01:41:25;;;;;;;8.97;3.27;;;;;;;;;;4454618;32;20568;-80
2023/04/27 01:43:52;;;;;;;11.83;3.33;;;;;;;;;;4454749;32;20596;-80
2023/04/27 01:46:20;;;;;;;6.97;3.10;;;;;;;;;;4454973;32;20642;-80
2023/04/27 01:48:47;;;;;;;7.50;3.30;;;;;;;;;;4454497;32;20673;-80
2023/04/27 01:51:15;;;;;;;10.20;3.40;;;;;;;;;;4454497;32;20570;-80
2023/04/27 01:53:42;;;;;;;11.30;3.90;;;;;;;;;;4454470;32;20684;-80
2023/04/27 01:56:10;;;;;;;8.13;3.70;;;;;;;;;;4454460;32;20291;-79
2023/04/27 01:58:39;;;;;;;7.17;2.87;;;;;;;;;;4454396;32;20406;-79
2023/04/27 02:01:06;;;;;;;9.40;3.10;;;;;;;;;;4454470;32;20377;-79
2023/04/27 02:03:34;;;;;;;18.10;5.30;;;;;;;;;;4454232;32;20612;-79
2023/04/27 02:06:01;;;;;;;10.03;3.73;;;;;;;;;;4454484;32;20545;-79
2023/04/27 02:08:29;;;;;;;8.80;3.87;;;;;;;;;;4454184;32;20405;-81
2023/04/27 02:10:57;;;;;;;7.07;3.40;;;;;;;;;;4454245;32;20238;-79
2023/04/27 02:13:26;;;;;;;6.43;3.60;;;;;;;;;;4454137;32;20315;-79
2023/04/27 02:15:55;;;;;;;6.67;3.90;;;;;;;;;;4454526;32;20647;-79
2023/04/27 02:18:23;;;;;;;6.57;3.60;;;;;;;;;;4454126;32;20545;-79
2023/04/27 02:20:50;;;;;;;7.37;3.90;;;;;;;;;;4453711;32;20590;-80
2023/04/27 02:23:18;;;;;;;6.27;3.30;;;;;;;;;;4453813;32;20568;-79
2023/04/27 02:25:45;;;;;;;7.80;3.90;;;;;;;;;;4453871;32;20271;-80
2023/04/27 02:28:13;;;;;;;7.23;3.50;;;;;;;;;;4453812;32;20569;-79
2023/04/27 02:30:40;;;;;;;7.10;2.90;;;;;;;;;;4453839;32;20540;-80
2023/04/27 02:33:09;;;;;;;7.37;3.57;;;;;;;;;;4454247;32;20604;-79
2023/04/27 02:35:37;;;;;;;7.17;2.90;;;;;;;;;;4453844;32;20601;-80
2023/04/27 02:38:05;;;;;;;5.33;3.13;;;;;;;;;;4453665;32;20576;-80
2023/04/27 02:40:33;;;;;;;13.27;3.80;;;;;;;;;;4453778;32;20591;-80
2023/04/27 02:43:00;;;;;;;15.50;4.17;;;;;;;;;;4453471;32;20629;-79
2023/04/27 02:45:28;;;;;;;11.57;4.20;;;;;;;;;;4452593;32;20615;-80
2023/04/27 02:47:56;;;;;;;6.50;3.37;;;;;;;;;;4453853;32;20572;-80
2023/04/27 02:50:24;;;;;;;5.43;3.60;;;;;;;;;;4453624;32;20540;-79
2023/04/27 02:52:52;;;;;;;8.73;4.23;;;;;;;;;;4453603;32;20573;-79
2023/04/27 02:55:20;;;;;;;9.87;4.93;;;;;;;;;;4453476;32;20711;-79
2023/04/27 02:57:47;;;;;;;7.87;3.97;;;;;;;;;;4453462;32;20592;-79
2023/04/27 03:00:16;;;;;;;6.67;4.17;;;;;;;;;;4453416;32;20540;-81
2023/04/27 03:02:43;;;;;;;8.27;4.17;;;;;;;;;;4453223;32;20608;-79
2023/04/27 03:05:11;;;;;;;8.57;5.20;;;;;;;;;;4453306;32;20560;-79
2023/04/27 03:07:41;;;;;;;10.47;4.63;;;;;;;;;;4453283;32;20529;-80
2023/04/27 03:10:09;;;;;;;11.80;4.50;;;;;;;;;;4453330;32;20604;-79
2023/04/27 03:12:37;;;;;;;9.33;4.33;;;;;;;;;;4453131;32;20653;-80
2023/04/27 03:15:05;;;;;;;6.83;4.77;;;;;;;;;;4453232;32;20514;-80
2023/04/27 03:17:33;;;;;;;6.93;3.77;;;;;;;;;;4453000;32;20617;-80
2023/04/27 03:20:00;;;;;;;12.10;5.80;;;;;;;;;;4453236;32;20659;-79
2023/04/27 03:22:28;;;;;;;10.23;4.90;;;;;;;;;;4452980;32;20559;-81
2023/04/27 03:24:57;;;;;;;6.87;4.43;;;;;;;;;;4453039;32;20672;-79
2023/04/27 03:27:24;;;;;;;12.53;5.57;;;;;;;;;;4453139;32;20532;-80
2023/04/27 03:29:52;;;;;;;9.67;6.00;;;;;;;;;;4452976;32;20646;-80
2023/04/27 03:32:20;;;;;;;8.43;5.30;;;;;;;;;;4452624;32;20633;-80
2023/04/27 03:34:47;;;;;;;12.57;5.83;;;;;;;;;;4452778;32;20636;-81
2023/04/27 03:37:15;;;;;;;15.80;5.30;;;;;;;;;;4452877;32;20603;-80
2023/04/27 03:39:43;;;;;;;12.43;6.00;;;;;;;;;;4452809;32;20567;-80
2023/04/27 03:42:12;;;;;;;27.50;14.80;;;;;;;;;;4452777;32;20582;-81
2023/04/27 03:44:39;;;;;;;39.07;20.37;;;;;;;;;;4452856;32;20805;-81
2023/04/27 03:47:08;;;;;;;68.83;37.17;;;;;;;;;;4452813;32;20597;-80
2023/04/27 03:49:36;;;;;;;33.17;17.33;;;;;;;;;;4452733;32;20570;-80
2023/04/27 03:52:03;;;;;;;24.30;13.93;;;;;;;;;;4452755;32;20288;-80
2023/04/27 03:54:32;;;;;;;54.33;37.67;;;;;;;;;;4452671;32;20637;-80
2023/04/27 03:57:01;;;;;;;24.97;17.03;;;;;;;;;;4453111;32;20662;-80
2023/04/27 03:59:31;;;;;;;11.80;7.00;;;;;;;;;;4452647;32;20614;-80
2023/04/27 04:01:58;;;;;;;11.77;5.57;;;;;;;;;;4453022;32;20616;-80
2023/04/27 04:04:26;;;;;;;11.90;5.40;;;;;;;;;;4452525;32;20633;-80
2023/04/27 04:06:53;;;;;;;17.63;7.10;;;;;;;;;;4453141;32;20613;-80
2023/04/27 04:09:21;;;;;;;19.00;6.70;;;;;;;;;;4452477;32;20307;-77
2023/04/27 04:11:48;;;;;;;16.90;7.10;;;;;;;;;;4453209;32;20537;-77
2023/04/27 04:14:16;;;;;;;14.27;6.87;;;;;;;;;;4452357;32;20652;-77
2023/04/27 04:16:45;;;;;;;15.47;7.33;;;;;;;;;;4451425;32;20593;-78
2023/04/27 04:19:12;;;;;;;14.70;9.43;;;;;;;;;;4452469;32;20632;-77
2023/04/27 04:21:40;;;;;;;25.40;9.50;;;;;;;;;;4452283;32;20699;-77
2023/04/27 04:24:09;;;;;;;14.60;8.00;;;;;;;;;;4452418;32;20611;-77
2023/04/27 04:26:37;;;;;;;15.87;10.13;;;;;;;;;;4452363;32;20533;-79
2023/04/27 04:29:05;;;;;;;19.90;8.73;;;;;;;;;;4452384;32;20584;-80
2023/04/27 04:31:33;;;;;;;12.93;6.50;;;;;;;;;;4452264;32;20589;-80
2023/04/27 04:34:02;;;;;;;19.73;8.20;;;;;;;;;;4452346;32;20753;-79
2023/04/27 04:36:30;;;;;;;12.30;8.10;;;;;;;;;;4452231;32;20602;-80
2023/04/27 04:38:57;;;;;;;18.43;6.70;;;;;;;;;;4452080;32;20564;-79
2023/04/27 04:41:25;;;;;;;11.17;6.20;;;;;;;;;;4451903;32;20648;-80
2023/04/27 04:43:57;;;;;;;16.80;6.73;;;;;;;;;;4452240;32;20607;-80
2023/04/27 04:46:25;;;;;;;18.77;7.90;;;;;;;;;;4455208;32;20552;-80
2023/04/27 04:48:52;;;;;;;16.93;6.57;;;;;;;;;;4454875;32;20727;-79
2023/04/27 04:51:21;;;;;;;21.53;8.07;;;;;;;;;;4454977;32;20597;-80
2023/04/27 04:53:49;;;;;;;24.90;11.50;;;;;;;;;;4455058;32;20576;-80
2023/04/27 04:56:16;;;;;;;17.87;11.13;;;;;;;;;;4454996;32;20562;-80
2023/04/27 04:58:44;;;;;;;17.30;10.23;;;;;;;;;;4454904;32;20649;-79
2023/04/27 05:01:14;;;;;;;21.50;9.87;;;;;;;;;;4454532;32;20309;-79
2023/04/27 05:03:42;;;;;;;12.40;6.63;;;;;;;;;;4454815;32;20721;-79
2023/04/27 05:06:13;;;;;;;12.57;5.10;;;;;;;;;;4454724;32;20560;-80
2023/04/27 05:08:44;;;;;;;12.43;4.90;;;;;;;;;;4454612;32;20658;-80
2023/04/27 05:11:13;;;;;;;11.20;5.27;;;;;;;;;;4454609;32;20529;-77
2023/04/27 05:13:42;;;;;;;7.93;4.10;;;;;;;;;;4454566;32;20464;-78
2023/04/27 05:16:10;;;;;;;9.47;4.23;;;;;;;;;;4454559;32;20209;-77
2023/04/27 05:18:38;;;;;;;12.07;4.37;;;;;;;;;;4454600;32;20591;-77
2023/04/27 05:21:05;;;;;;;11.67;5.17;;;;;;;;;;4454649;32;20592;-77
2023/04/27 05:23:33;;;;;;;17.80;4.20;;;;;;;;;;4454450;32;20592;-80
2023/04/27 05:26:02;;;;;;;8.90;4.00;;;;;;;;;;4454101;32;20256;-78
2023/04/27 05:28:30;;;;;;;7.00;3.40;;;;;;;;;;4453737;32;20639;-79
2023/04/27 05:30:57;;;;;;;8.97;3.50;;;;;;;;;;4454240;32;20260;-78
2023/04/27 05:33:24;;;;;;;7.67;4.13;;;;;;;;;;4453928;32;20596;-77
2023/04/27 05:35:52;;;;;;;7.83;3.80;;;;;;;;;;4453225;32;20609;-77
2023/04/27 05:38:19;;;;;;;11.63;6.93;;;;;;;;;;4453958;32;20649;-77
2023/04/27 05:40:47;;;;;;;11.77;4.53;;;;;;;;;;4454068;32;20295;-78
2023/04/27 05:43:16;;;;;;;8.97;3.87;;;;;;;;;;4454011;32;20595;-79
2023/04/27 05:45:44;;;;;;;6.33;3.57;;;;;;;;;;4453772;32;20545;-79
2023/04/27 05:48:12;;;;;;;7.47;4.03;;;;;;;;;;4453909;32;20612;-79
2023/04/27 05:50:40;;;;;;;9.73;3.90;;;;;;;;;;4453820;32;20510;-80
2023/04/27 05:53:08;;;;;;;11.83;4.57;;;;;;;;;;4453895;32;20542;-79
2023/04/27 05:55:36;;;;;;;14.10;4.23;;;;;;;;;;4453002;32;20606;-79
2023/04/27 05:58:03;;;;;;;12.57;4.53;;;;;;;;;;4453673;32;20546;-80
2023/04/27 06:00:32;;;;;;;11.23;4.73;;;;;;;;;;4454127;32;20615;-78
2023/04/27 06:03:00;;;;;;;12.23;4.10;;;;;;;;;;4453192;32;20610;-80
2023/04/27 06:05:28;;;;;;;10.20;4.03;;;;;;;;;;4453525;32;20499;-80
2023/04/27 06:07:55;;;;;;;8.67;4.10;;;;;;;;;;4453762;32;20594;-80
2023/04/27 06:10:23;;;;;;;8.27;2.77;;;;;;;;;;4453916;32;20563;-79
2023/04/27 06:12:52;;;;;;;5.23;3.07;;;;;;;;;;4454170;32;20688;-80
2023/04/27 06:15:21;;;;;;;9.37;3.93;;;;;;;;;;4453894;32;20723;-81
2023/04/27 06:17:50;;;;;;;13.20;3.80;;;;;;;;;;4454044;32;20555;-80
2023/04/27 06:20:19;;;;;;;6.23;3.30;;;;;;;;;;4453464;32;20668;-80
2023/04/27 06:22:52;;;;;;;21.07;7.97;;;;;;;;;;4453217;32;20637;-82
2023/04/27 06:25:20;;;;;;;7.43;4.33;;;;;;;;;;4453538;32;20287;-82
2023/04/27 06:27:47;;;;;;;4.97;3.10;;;;;;;;;;4453094;32;20537;-82
2023/04/27 06:30:15;;;;;;;7.77;3.13;;;;;;;;;;4453383;32;20252;-81
2023/04/27 06:32:43;;;;;;;9.90;4.17;;;;;;;;;;4453799;32;20703;-81
2023/04/27 06:35:12;;;;;;;10.87;4.20;;;;;;;;;;4453874;32;20590;-81
2023/04/27 06:37:42;;;;;;;7.93;4.03;;;;;;;;;;4452999;32;20624;-81
2023/04/27 06:40:11;;;;;;;11.83;4.33;;;;;;;;;;4453962;32;20600;-82
2023/04/27 06:42:38;;;;;;;9.37;3.70;;;;;;;;;;4453155;32;20342;-81
2023/04/27 06:45:06;;;;;;;10.63;3.73;;;;;;;;;;4452746;32;20506;-81
2023/04/27 06:47:34;;;;;;;9.23;3.63;;;;;;;;;;4452455;32;20533;-82
2023/04/27 06:50:03;;;;;;;8.80;3.87;;;;;;;;;;4452607;32;20577;-81
2023/04/27 06:52:33;;;;;;;9.20;4.40;;;;;;;;;;4452707;32;20533;-82
2023/04/27 06:55:01;;;;;;;9.03;3.60;;;;;;;;;;4452947;32;20560;-82
2023/04/27 06:57:28;;;;;;;13.47;3.77;;;;;;;;;;4452709;32;20616;-81
2023/04/27 06:59:55;;;;;;;8.07;2.90;;;;;;;;;;4453011;32;20577;-81
2023/04/27 07:02:23;;;;;;;19.77;4.33;;;;;;;;;;4453920;32;20694;-81
2023/04/27 07:04:52;;;;;;;5.93;3.00;;;;;;;;;;4452753;32;20586;-81
2023/04/27 07:07:19;;;;;;;9.27;3.87;;;;;;;;;;4453018;32;20545;-81
2023/04/27 07:09:48;;;;;;;9.23;3.10;;;;;;;;;;4452693;32;20625;-81
2023/04/27 07:12:16;;;;;;;10.63;3.37;;;;;;;;;;4452453;32;20250;-80
2023/04/27 07:14:45;;;;;;;8.93;3.23;;;;;;;;;;4452545;32;20621;-81
2023/04/27 07:17:13;;;;;;;3.67;2.30;;;;;;;;;;4452829;32;20632;-80
2023/04/27 07:19:40;;;;;;;7.63;3.10;;;;;;;;;;4452328;32;20619;-81
2023/04/27 07:22:08;;;;;;;8.83;4.53;;;;;;;;;;4452299;32;20572;-81
2023/04/27 07:24:36;;;;;;;13.87;3.30;;;;;;;;;;4452177;32;20618;-81
2023/04/27 07:27:07;;;;;;;7.23;3.13;;;;;;;;;;4452622;32;20625;-81
2023/04/27 07:29:36;;;;;;;9.87;2.67;;;;;;;;;;4452368;32;20675;-81
2023/04/27 07:32:06;;;;;;;18.27;7.57;;;;;;;;;;4452207;32;20577;-81
2023/04/27 07:34:33;;;;;;;20.63;12.37;;;;;;;;;;4452185;32;20683;-81
2023/04/27 07:37:01;;;;;;;17.20;7.27;;;;;;;;;;4452259;32;20626;-81
2023/04/27 07:39:32;;;;;;;14.03;8.83;;;;;;;;;;4452084;32;20565;-80
2023/04/27 07:41:59;;;;;;;8.27;4.00;;;;;;;;;;4452340;32;20527;-83
2023/04/27 07:44:29;;;;;;;9.03;3.60;;;;;;;;;;4451607;32;20641;-78
2023/04/27 07:46:57;;;;;;;13.07;3.10;;;;;;;;;;4451334;32;20568;-77
2023/04/27 07:49:26;;;;;;;5.57;3.50;;;;;;;;;;4451933;32;20652;-78
2023/04/27 07:51:54;;;;;;;7.47;3.53;;;;;;;;;;4451623;32;20661;-77
2023/04/27 07:54:21;;;;;;;7.53;3.20;;;;;;;;;;4452255;32;20273;-77
2023/04/27 07:56:49;;;;;;;5.77;3.13;;;;;;;;;;4452002;32;20662;-77
2023/04/27 07:59:17;;;;;;;7.77;3.47;;;;;;;;;;4451809;32;20689;-78
2023/04/27 08:01:46;;;;;;;10.43;3.77;;;;;;;;;;4451912;32;20629;-77
2023/04/27 08:04:14;;;;;;;8.60;3.30;;;;;;;;;;4451181;32;20754;-77
2023/04/27 08:06:42;;;;;;;5.10;2.30;;;;;;;;;;4451814;32;20584;-78
2023/04/27 08:09:09;;;;;;;14.27;3.83;;;;;;;;;;4451364;32;20295;-78
2023/04/27 08:11:39;;;;;;;6.03;3.07;;;;;;;;;;4452185;32;20580;-77
2023/04/27 08:14:12;;;;;;;10.27;2.93;;;;;;;;;;4451064;32;20577;-76
2023/04/27 08:16:42;;;;;;;6.17;3.63;;;;;;;;;;4450994;32;20528;-77
2023/04/27 08:19:11;;;;;;;3.93;2.80;;;;;;;;;;4451424;32;20592;-75
2023/04/27 08:21:39;;;;;;;5.33;3.13;;;;;;;;;;4451630;32;20573;-76
2023/04/27 08:24:07;;;;;;;8.50;3.30;;;;;;;;;;4451579;32;20503;-75
2023/04/27 08:26:34;;;;;;;5.93;3.10;;;;;;;;;;4451857;32;20685;-75
2023/04/27 08:29:02;;;;;;;5.70;2.97;;;;;;;;;;4451738;32;20592;-75
2023/04/27 08:31:29;;;;;;;6.27;3.20;;;;;;;;;;4451690;32;20577;-76
2023/04/27 08:33:58;;;;;;;6.03;3.27;;;;;;;;;;4451653;32;20565;-76
2023/04/27 08:36:27;;;;;;;7.23;3.07;;;;;;;;;;4451675;32;20264;-76
2023/04/27 08:38:55;;;;;;;8.43;2.67;;;;;;;;;;4450565;32;20687;-76
2023/04/27 08:41:24;;;;;;;6.93;4.17;;;;;;;;;;4452119;32;20200;-75
2023/04/27 08:46:22;;;;;;;10.60;4.90;;;;;;;;;;4411551;32;20255;-75
2023/04/27 08:48:50;;;;;;;8.87;3.70;;;;;;;;;;4408587;32;20261;-76
2023/04/27 08:51:18;;;;;;;7.23;3.73;;;;;;;;;;4400965;32;20261;-75
2023/04/27 08:53:52;;;;;;;8.10;3.90;;;;;;;;;;4401075;32;20229;-74
2023/04/27 08:56:22;;;;;;;7.80;3.03;;;;;;;;;;4357350;32;321218;-76
2023/04/27 08:58:49;;;;;;;7.80;2.50;;;;;;;;;;4355705;32;316889;-78
2023/04/27 09:01:15;;;;;;;8.87;4.20;;;;;;;;;;4352812;32;317383;-79
2023/04/27 09:03:45;;;;;;;4.67;3.13;;;;;;;;;;4349346;32;354160;-79
2023/04/27 09:06:12;;;;;;;10.03;4.23;;;;;;;;;;4342243;32;317379;-76
2023/04/27 09:08:45;;;;;;;6.17;3.30;;;;;;;;;;4362804;32;317739;-76
2023/04/27 09:11:13;;;;;;;11.67;5.60;;;;;;;;;;4340665;32;317227;-75
2023/04/27 09:13:43;;;;;;;5.27;2.67;;;;;;;;;;4350718;32;317849;-78
2023/04/27 09:16:12;;;;;;;11.07;3.73;;;;;;;;;;4340420;32;348771;-77
2023/04/27 09:18:42;;;;;;;5.17;2.60;;;;;;;;;;4351888;32;318313;-76
2023/04/27 09:21:09;;;;;;;9.03;3.60;;;;;;;;;;4340414;32;317389;-80
2023/04/27 09:23:40;;;;;;;8.45;3.80;;;;;;;;;;4343306;32;316168;-76
2023/04/27 09:26:08;;;;;;;8.13;5.28;;;;;;;;;;4340113;32;317305;-78
2023/04/27 09:28:39;;;;;;;14.30;3.63;;;;;;;;;;4349989;32;317265;-77
2023/04/27 09:31:07;;;;;;;5.22;3.12;;;;;;;;;;4347772;32;318408;-75
2023/04/27 09:33:35;;;;;;;7.32;3.53;;;;;;;;;;4352826;32;330896;-75
2023/04/27 09:36:04;;;;;;;12.33;3.50;;;;;;;;;;4359157;32;317344;-74
2023/04/27 09:38:31;;;;;;;6.27;3.23;;;;;;;;;;4352215;32;419124;-75
2023/04/27 09:40:59;;;;;;;9.30;4.97;;;;;;;;;;4364859;32;316830;-74
2023/04/27 09:43:27;;;;;;;11.27;4.80;;;;;;;;;;4352773;32;316688;-77
2023/04/27 09:45:56;;;;;;;10.52;4.12;;;;;;;;;;4368608;32;318448;-75
2023/04/27 09:48:25;;;;;;;8.50;2.40;;;;;;;;;;4355723;32;317474;-74
2023/04/27 09:50:52;;;;;;;5.03;2.58;;;;;;;;;;4365507;32;330120;-75
2023/04/27 09:53:23;;;;;;;5.25;2.37;;;;;;;;;;4358318;32;317750;-77
2023/04/27 09:56:02;;;;;;;5.82;3.25;;;;;;;;;;4366503;32;317324;-75
2023/04/27 09:59:06;;;;;;;5.25;3.60;;;;;;;;;;4341474;32;387917;-76
2023/04/27 10:01:40;;;;;;;6.82;2.25;;;;;;;;;;4353994;32;417514;-76
2023/04/27 10:04:25;;;;;;;8.10;2.43;;;;;;;;;;4355124;32;317547;-75
2023/04/27 10:07:00;;;;;;;6.37;2.35;;;;;;;;;;4340853;32;316701;-74
2023/04/27 10:09:30;;;;;;;10.13;2.40;;;;;;;;;;4319335;32;317402;-75
2023/04/27 10:11:57;;;;;;;7.73;2.70;;;;;;;;;;4337984;32;317889;-81
2023/04/27 10:14:27;;;;;;;13.73;3.30;;;;;;;;;;4342116;32;317864;-80
2023/04/27 10:16:57;;;;;;;5.87;3.00;;;;;;;;;;4360390;32;318827;-77
2023/04/27 10:19:27;;;;;;;4.40;2.42;;;;;;;;;;4348366;32;317456;-76
2023/04/27 10:21:56;;;;;;;9.32;4.47;;;;;;;;;;4358858;32;317258;-74
2023/04/27 10:24:36;;;;;;;7.10;2.62;;;;;;;;;;4344720;32;317467;-75
2023/04/27 10:27:05;;;;;;;5.10;3.37;;;;;;;;;;4343153;32;317265;-79
2023/04/27 10:29:37;;;;;;;7.40;2.60;;;;;;;;;;4353177;32;317354;-76
2023/04/27 10:32:09;;;;;;;9.68;2.70;;;;;;;;;;4343216;32;317560;-75
2023/04/27 10:34:36;;;;;;;8.27;2.72;;;;;;;;;;4352393;32;317572;-75
2023/04/27 10:37:08;;;;;;;10.95;3.37;;;;;;;;;;4348981;32;317248;-77
2023/04/27 10:39:37;;;;;;;3.25;1.90;;;;;;;;;;4366988;32;318401;-75
2023/04/27 10:42:04;;;;;;;8.88;2.45;;;;;;;;;;4372030;32;317350;-78
2023/04/27 10:44:32;;;;;;;11.85;4.00;;;;;;;;;;4382292;32;317254;-76
2023/04/27 10:47:01;;;;;;;13.10;3.97;;;;;;;;;;4355992;32;318277;-78
2023/04/27 10:49:30;;;;;;;13.30;4.70;;;;;;;;;;4318267;32;318323;-77
2023/04/27 10:51:58;;;;;;;5.05;2.58;;;;;;;;;;4336216;32;318538;-75
2023/04/27 10:54:27;;;;;;;7.87;2.83;;;;;;;;;;4357683;32;317402;-75
2023/04/27 10:56:54;;;;;;;6.45;2.60;;;;;;;;;;4367450;32;316954;-79
2023/04/27 10:59:23;;;;;;;5.75;2.97;;;;;;;;;;4358141;32;317741;-75
2023/04/27 11:01:50;;;;;;;6.05;2.45;;;;;;;;;;4357955;32;317457;-75
2023/04/27 11:04:17;;;;;;;5.10;2.62;;;;;;;;;;4346071;32;317301;-75
2023/04/27 11:06:52;;;;;;;6.72;2.85;;;;;;;;;;4366430;32;317385;-77
2023/04/27 11:09:26;;;;;;;8.07;2.12;;;;;;;;;;4356519;32;317222;-74
2023/04/27 11:11:52;;;;;;;7.05;2.80;;;;;;;;;;4366861;32;316618;-78
2023/04/27 11:14:21;;;;;;;5.57;2.72;;;;;;;;;;4351625;32;317152;-77
2023/04/27 11:16:48;;;;;;;10.65;2.33;;;;;;;;;;4368026;32;317734;-79
2023/04/27 11:19:17;;;;;;;5.87;2.60;;;;;;;;;;4332067;32;318358;-77
2023/04/27 11:21:45;;;;;;;15.73;3.37;;;;;;;;;;4343038;32;318523;-79
2023/04/27 11:24:13;;;;;;;10.75;3.03;;;;;;;;;;4355648;32;318583;-78
2023/04/27 11:26:40;;;;;;;7.67;2.67;;;;;;;;;;4372404;32;318252;-79
2023/04/27 11:29:11;;;;;;;7.47;2.37;;;;;;;;;;4358105;32;316397;-77
2023/04/27 11:31:46;;;;;;;5.70;2.95;;;;;;;;;;4372857;32;319473;-80
2023/04/27 11:34:16;;;;;;;5.23;2.80;;;;;;;;;;4370802;32;317324;-79
2023/04/27 11:36:42;;;;;;;5.62;2.62;;;;;;;;;;4368482;32;317657;-79
2023/04/27 11:39:17;;;;;;;8.40;4.77;;;;;;;;;;4356428;32;317237;-78
2023/04/27 11:41:45;;;;;;;6.82;3.05;;;;;;;;;;4349190;32;317542;-78
2023/04/27 11:44:12;;;;;;;4.90;2.42;;;;;;;;;;4336315;32;317641;-81
2023/04/27 11:46:41;;;;;;;6.45;3.30;;;;;;;;;;4363873;32;317284;-79
2023/04/27 11:49:11;;;;;;;6.50;2.83;;;;;;;;;;4355488;32;317463;-81
2023/04/27 11:51:39;;;;;;;6.47;3.43;;;;;;;;;;4368052;32;317449;-79
2023/04/27 11:54:08;;;;;;;9.80;4.60;;;;;;;;;;4344925;32;316964;-81
2023/04/27 11:56:37;;;;;;;9.63;2.43;;;;;;;;;;4366261;32;317241;-78
2023/04/27 11:59:05;;;;;;;6.27;3.27;;;;;;;;;;4358001;32;317284;-79
2023/04/27 12:01:33;;;;;;;6.53;2.53;;;;;;;;;;4374943;32;317527;-77
2023/04/27 12:04:01;;;;;;;4.18;2.50;;;;;;;;;;4379897;32;317232;-77
2023/04/27 12:06:33;;;;;;;6.22;3.12;;;;;;;;;;4338953;32;422173;-78
2023/04/27 12:09:00;;;;;;;5.85;2.67;;;;;;;;;;4353924;32;316424;-78
2023/04/27 12:11:27;;;;;;;8.32;3.10;;;;;;;;;;4334456;32;315553;-78
2023/04/27 12:13:56;;;;;;;7.28;2.72;;;;;;;;;;4362269;32;317144;-78
2023/04/27 12:16:23;;;;;;;3.83;2.40;;;;;;;;;;4349700;32;317140;-77
2023/04/27 12:18:50;;;;;;;11.40;4.37;;;;;;;;;;4368752;32;317162;-78
2023/04/27 12:21:17;;;;;;;9.35;3.12;;;;;;;;;;4358451;32;317914;-80
2023/04/27 12:23:44;;;;;;;11.15;2.67;;;;;;;;;;4370778;32;317261;-79
2023/04/27 12:26:12;;;;;;;15.88;5.03;;;;;;;;;;4357997;32;318473;-78
2023/04/27 12:28:38;;;;;;;6.20;2.58;;;;;;;;;;4359360;32;317248;-79
2023/04/27 12:31:07;;;;;;;6.32;3.25;;;;;;;;;;4355271;32;363722;-78
2023/04/27 12:33:34;;;;;;;11.00;3.92;;;;;;;;;;4365921;32;315410;-79
2023/04/27 12:36:00;;;;;;;8.48;3.40;;;;;;;;;;4367020;32;337809;-79
2023/04/27 12:38:28;;;;;;;5.53;3.45;;;;;;;;;;4358334;32;317684;-78
2023/04/27 12:40:55;;;;;;;6.93;3.78;;;;;;;;;;4368028;32;316521;-79
2023/04/27 12:43:21;;;;;;;8.35;3.85;;;;;;;;;;4358006;32;317932;-81
2023/04/27 12:45:48;;;;;;;7.78;3.70;;;;;;;;;;4367526;32;316584;-81
2023/04/27 12:48:16;;;;;;;6.03;3.30;;;;;;;;;;4354216;32;317698;-81
2023/04/27 12:50:44;;;;;;;4.07;1.77;;;;;;;;;;4364897;32;316900;-81
2023/04/27 12:53:11;;;;;;;6.43;2.35;;;;;;;;;;4356443;32;317232;-82
2023/04/27 12:55:38;;;;;;;3.83;2.33;;;;;;;;;;4366353;32;316785;-81
2023/04/27 12:58:05;;;;;;;7.35;3.05;;;;;;;;;;4356175;32;317446;-81
2023/04/27 13:00:34;;;;;;;6.00;2.53;;;;;;;;;;4362060;32;317677;-81
2023/04/27 13:03:01;;;;;;;6.05;2.83;;;;;;;;;;4360533;32;317258;-81
2023/04/27 13:05:29;;;;;;;5.47;2.95;;;;;;;;;;4347528;32;321849;-81
2023/04/27 13:07:56;;;;;;;9.65;2.97;;;;;;;;;;4353733;32;333062;-81
2023/04/27 13:10:22;;;;;;;6.43;2.70;;;;;;;;;;4348370;32;317033;-82
2023/04/27 13:12:49;;;;;;;6.50;2.80;;;;;;;;;;4368964;32;317360;-80
2023/04/27 13:15:17;;;;;;;5.20;2.87;;;;;;;;;;4359976;32;318370;-81
2023/04/27 13:17:43;;;;;;;4.95;2.25;;;;;;;;;;4370128;32;316372;-80
2023/04/27 13:20:11;;;;;;;9.10;3.40;;;;;;;;;;4355331;32;317331;-78
2023/04/27 13:22:41;;;;;;;10.00;3.25;;;;;;;;;;4362685;32;339870;-78
2023/04/27 13:25:09;;;;;;;13.13;3.42;;;;;;;;;;4352325;32;318485;-78
2023/04/27 13:27:36;;;;;;;6.60;1.90;;;;;;;;;;4368273;32;318007;-77
2023/04/27 13:30:03;;;;;;;5.97;2.97;;;;;;;;;;4369595;32;317341;-78
2023/04/27 13:32:30;;;;;;;5.20;2.42;;;;;;;;;;4357625;32;418292;-78
2023/04/27 13:34:57;;;;;;;4.05;1.92;;;;;;;;;;4365469;32;317026;-78
2023/04/27 13:37:24;;;;;;;8.32;2.70;;;;;;;;;;4342282;32;317396;-79
2023/04/27 13:39:52;;;;;;;18.87;3.12;;;;;;;;;;4361159;32;317163;-78
2023/04/27 13:42:19;;;;;;;10.77;3.00;;;;;;;;;;4359368;32;318017;-78
2023/04/27 13:44:46;;;;;;;5.28;2.47;;;;;;;;;;4368556;32;353070;-78
2023/04/27 13:47:12;;;;;;;5.03;2.35;;;;;;;;;;4371728;32;317494;-79
2023/04/27 13:49:39;;;;;;;7.10;2.60;;;;;;;;;;4380273;32;318153;-78
2023/04/27 13:52:06;;;;;;;9.18;2.95;;;;;;;;;;4373589;32;317208;-79
2023/04/27 13:54:34;;;;;;;8.18;3.30;;;;;;;;;;4384206;32;317316;-79
2023/04/27 13:57:02;;;;;;;5.62;2.42;;;;;;;;;;4383938;32;316520;-78
2023/04/27 13:59:30;;;;;;;8.75;3.25;;;;;;;;;;4371795;32;418162;-78
2023/04/27 14:01:56;;;;;;;5.60;2.58;;;;;;;;;;4383878;32;317443;-77
2023/04/27 14:04:23;;;;;;;10.48;3.35;;;;;;;;;;4369115;32;321361;-77
2023/04/27 14:06:50;;;;;;;4.37;2.35;;;;;;;;;;4382416;32;318021;-78
2023/04/27 14:09:16;;;;;;;10.60;2.85;;;;;;;;;;4374283;32;317674;-78
2023/04/27 14:11:43;;;;;;;10.50;3.35;;;;;;;;;;4384172;32;317923;-78
2023/04/27 14:14:11;;;;;;;7.25;2.37;;;;;;;;;;4373677;32;318470;-78
2023/04/27 14:16:38;;;;;;;4.00;2.20;;;;;;;;;;4383728;32;317023;-78
2023/04/27 14:19:05;;;;;;;10.68;2.80;;;;;;;;;;4370536;32;317635;-78
2023/04/27 14:21:32;;;;;;;6.45;2.85;;;;;;;;;;4381610;32;318224;-78
2023/04/27 14:23:58;;;;;;;5.60;2.95;;;;;;;;;;4383413;32;317162;-78
2023/04/27 14:26:25;;;;;;;8.82;3.97;;;;;;;;;;4374074;32;317316;-77
2023/04/27 14:28:54;;;;;;;8.18;3.53;;;;;;;;;;4382883;32;317118;-78
2023/04/27 14:31:25;;;;;;;9.88;3.10;;;;;;;;;;4364958;32;317540;-78
2023/04/27 14:33:52;;;;;;;10.95;2.87;;;;;;;;;;4383437;32;317129;-77
2023/04/27 14:36:19;;;;;;;5.37;3.25;;;;;;;;;;4366482;32;318228;-78
2023/04/27 14:38:46;;;;;;;11.20;4.43;;;;;;;;;;4382056;32;317034;-79
2023/04/27 14:41:13;;;;;;;6.60;2.47;;;;;;;;;;4373809;32;318288;-78